createdAt,value
2019-02-21T00:02:21.084Z,17.27
2019-02-21T00:04:49.576Z,16.77
2019-02-21T00:07:18.426Z,16.60
2019-02-21T00:09:47.039Z,18.42
2019-02-21T00:12:15.665Z,18.00
2019-02-21T00:14:44.236Z,17.57
2019-02-21T00:17:12.864Z,17.12
2019-02-21T00:19:41.486Z,17.95
2019-02-21T00:22:10.145Z,17.32
2019-02-21T00:24:40.038Z,18.60
2019-02-21T00:27:08.588Z,18.62
2019-02-21T00:29:37.476Z,18.60
2019-02-21T00:32:06.098Z,18.23
2019-02-21T00:34:34.652Z,18.70
2019-02-21T00:37:03.173Z,18.85
2019-02-21T00:39:31.807Z,20.23
2019-02-21T00:42:00.377Z,21.35
2019-02-21T00:44:29.046Z,20.88
2019-02-21T00:46:57.681Z,22.00
2019-02-21T00:49:26.159Z,22.42
2019-02-21T00:51:54.698Z,22.50
2019-02-21T00:54:23.326Z,22.27
2019-02-21T00:56:51.952Z,23.52
2019-02-21T00:59:20.488Z,21.12
2019-02-21T01:01:49.112Z,20.30
2019-02-21T01:04:17.803Z,20.12
2019-02-21T01:06:46.428Z,21.37
2019-02-21T01:09:15.260Z,21.27
2019-02-21T01:11:43.740Z,22.50
2019-02-21T01:14:12.466Z,21.33
2019-02-21T01:16:41.090Z,21.52
2019-02-21T01:19:09.570Z,21.20
2019-02-21T01:21:38.254Z,22.48
2019-02-21T01:24:06.787Z,20.57
2019-02-21T01:26:35.278Z,21.17
2019-02-21T01:29:03.949Z,21.02
2019-02-21T01:31:32.579Z,20.05
2019-02-21T01:34:01.069Z,20.25
2019-02-21T01:36:29.597Z,20.70
2019-02-21T01:38:59.097Z,21.00
2019-02-21T01:41:27.738Z,21.17
2019-02-21T01:43:56.278Z,19.02
2019-02-21T01:46:24.765Z,18.90
2019-02-21T01:48:53.391Z,19.98
2019-02-21T01:51:22.226Z,18.67
2019-02-21T01:53:50.788Z,18.17
2019-02-21T01:56:19.391Z,19.40
2019-02-21T01:58:48.037Z,18.70
2019-02-21T02:01:16.718Z,18.52
2019-02-21T02:03:45.278Z,17.90
2019-02-21T02:06:13.906Z,17.73
2019-02-21T02:08:42.574Z,17.67
2019-02-21T02:11:13.922Z,18.10
2019-02-21T02:13:42.444Z,17.77
2019-02-21T02:16:11.363Z,17.17
2019-02-21T02:18:39.981Z,17.62
2019-02-21T02:21:08.616Z,18.23
2019-02-21T02:23:37.159Z,18.30
2019-02-21T02:26:05.701Z,18.02
2019-02-21T02:28:34.335Z,17.15
2019-02-21T02:31:02.992Z,16.30
2019-02-21T02:33:31.733Z,17.90
2019-02-21T02:36:00.232Z,18.23
2019-02-21T02:38:29.132Z,17.43
2019-02-21T02:40:57.641Z,17.15
2019-02-21T02:43:26.346Z,15.75
2019-02-21T02:45:55.282Z,17.10
2019-02-21T02:48:23.843Z,17.02
2019-02-21T02:50:52.326Z,16.12
2019-02-21T02:53:21.232Z,17.42
2019-02-21T02:55:49.870Z,17.05
2019-02-21T02:58:18.365Z,17.50
2019-02-21T03:00:46.893Z,16.17
2019-02-21T03:03:15.515Z,16.40
2019-02-21T03:05:44.144Z,16.17
2019-02-21T03:08:12.933Z,15.95
2019-02-21T03:10:41.420Z,15.88
2019-02-21T03:13:10.552Z,16.87
2019-02-21T03:15:39.222Z,15.88
2019-02-21T03:18:07.693Z,17.02
2019-02-21T03:20:36.326Z,16.65
2019-02-21T03:23:05.145Z,17.40
2019-02-21T03:25:33.715Z,17.32
2019-02-21T03:28:02.367Z,16.80
2019-02-21T03:30:31.052Z,16.60
2019-02-21T03:32:59.609Z,16.70
2019-02-21T03:35:28.116Z,17.05
2019-02-21T03:37:56.795Z,18.10
2019-02-21T03:40:25.423Z,16.50
2019-02-21T03:42:54.092Z,14.63
2019-02-21T03:45:22.608Z,17.13
2019-02-21T03:47:51.247Z,17.40
2019-02-21T03:50:19.903Z,16.63
2019-02-21T03:52:48.384Z,16.73
2019-02-21T03:55:17.009Z,15.83
2019-02-21T03:57:45.670Z,16.13
2019-02-21T04:00:14.372Z,12.97
2019-02-21T04:02:43.105Z,13.70
2019-02-21T04:05:11.743Z,11.37
2019-02-21T04:07:40.304Z,11.43
2019-02-21T04:10:09.732Z,12.43
2019-02-21T04:12:38.400Z,11.03
2019-02-21T04:15:09.298Z,13.65
2019-02-21T04:17:37.928Z,11.93
2019-02-21T04:20:07.542Z,12.47
2019-02-21T04:22:36.163Z,12.60
2019-02-21T04:25:06.698Z,12.07
2019-02-21T04:27:35.266Z,9.67
2019-02-21T04:30:04.264Z,8.93
2019-02-21T04:32:32.974Z,10.00
2019-02-21T04:35:01.638Z,12.53
2019-02-21T04:37:30.203Z,12.35
2019-02-21T04:39:58.833Z,13.93
2019-02-21T04:42:27.575Z,12.05
2019-02-21T04:44:56.151Z,12.53
2019-02-21T04:47:24.764Z,12.23
2019-02-21T04:49:56.495Z,12.47
2019-02-21T04:52:24.973Z,13.37
2019-02-21T04:54:53.468Z,11.90
2019-02-21T04:57:22.139Z,11.97
2019-02-21T04:59:50.765Z,12.07
2019-02-21T05:02:28.602Z,12.07
2019-02-21T05:04:49.575Z,12.73
2019-02-21T05:07:18.285Z,12.47
2019-02-21T05:09:57.641Z,13.00
2019-02-21T05:12:17.236Z,11.03
2019-02-21T05:14:45.722Z,10.13
2019-02-21T05:17:14.367Z,11.27
2019-02-21T05:19:43.034Z,13.67
2019-02-21T05:22:11.665Z,14.27
2019-02-21T05:24:40.285Z,12.57
2019-02-21T05:27:19.316Z,12.77
2019-02-21T05:29:47.887Z,13.10
2019-02-21T05:32:24.426Z,14.37
2019-02-21T05:34:57.863Z,14.87
2019-02-21T05:37:34.008Z,14.73
2019-02-21T05:40:07.116Z,13.67
2019-02-21T05:42:49.465Z,14.10
2019-02-21T05:45:19.815Z,12.43
2019-02-21T05:47:52.867Z,15.93
2019-02-21T05:50:23.220Z,13.93
2019-02-21T05:53:05.758Z,14.63
2019-02-21T05:55:36.114Z,13.28
2019-02-21T05:58:06.305Z,13.70
2019-02-21T06:00:37.042Z,17.27
2019-02-21T06:03:10.948Z,15.05
2019-02-21T06:05:49.971Z,13.53
2019-02-21T06:08:29.265Z,14.83
2019-02-21T06:10:59.520Z,15.18
2019-02-21T06:13:29.654Z,14.83
2019-02-21T06:15:59.900Z,14.95
2019-02-21T06:18:30.315Z,17.15
2019-02-21T06:21:00.620Z,16.32
2019-02-21T06:23:30.939Z,13.70
2019-02-21T06:26:01.439Z,15.45
2019-02-21T06:28:34.675Z,16.60
2019-02-21T06:31:04.982Z,16.60
2019-02-21T06:33:33.576Z,16.50
2019-02-21T06:36:02.127Z,14.93
2019-02-21T06:38:33.527Z,15.68
2019-02-21T06:41:01.298Z,17.07
2019-02-21T06:43:29.929Z,15.48
2019-02-21T06:45:58.616Z,18.77
2019-02-21T06:48:27.081Z,17.40
2019-02-21T06:50:55.582Z,18.87
2019-02-21T06:53:24.252Z,16.25
2019-02-21T06:55:52.878Z,19.10
2019-02-21T06:58:21.370Z,16.45
2019-02-21T07:00:50.097Z,14.70
2019-02-21T07:03:18.740Z,16.40
2019-02-21T07:05:47.433Z,17.20
2019-02-21T07:08:16.137Z,15.35
2019-02-21T07:10:44.627Z,15.25
2019-02-21T07:13:13.281Z,15.25
2019-02-21T07:15:42.136Z,14.65
2019-02-21T07:18:11.215Z,31.12
2019-02-21T07:20:39.903Z,16.23
2019-02-21T07:23:11.093Z,23.38
2019-02-21T07:25:40.651Z,58.65
2019-02-21T07:28:12.526Z,92.15
2019-02-21T07:30:39.852Z,49.25
2019-02-21T07:33:08.549Z,28.30
2019-02-21T07:35:37.183Z,24.85
2019-02-21T07:38:08.855Z,14.05
2019-02-21T07:40:37.359Z,17.92
2019-02-21T07:43:05.997Z,15.83
2019-02-21T07:45:36.329Z,15.35
2019-02-21T07:48:05.170Z,15.28
2019-02-21T07:50:33.753Z,16.02
2019-02-21T07:53:03.058Z,14.58
2019-02-21T07:55:31.772Z,15.38
2019-02-21T07:58:00.400Z,16.50
2019-02-21T08:00:29.220Z,17.57
2019-02-21T08:02:57.815Z,16.05
2019-02-21T08:05:26.472Z,15.68
2019-02-21T08:07:55.282Z,15.48
2019-02-21T08:10:33.263Z,15.63
2019-02-21T08:12:54.193Z,15.28
2019-02-21T08:15:22.782Z,15.93
2019-02-21T08:17:51.418Z,16.70
2019-02-21T08:20:20.061Z,15.45
2019-02-21T08:22:48.909Z,16.42
2019-02-21T08:25:19.296Z,15.53
2019-02-21T08:27:47.846Z,15.48
2019-02-21T08:30:16.526Z,18.87
2019-02-21T08:32:58.465Z,16.45
2019-02-21T08:35:27.374Z,16.30
2019-02-21T08:37:56.005Z,16.97
2019-02-21T08:40:25.180Z,16.87
2019-02-21T08:42:54.034Z,16.52
2019-02-21T08:45:22.662Z,16.25
2019-02-21T08:47:51.158Z,15.23
2019-02-21T08:50:22.095Z,12.58
2019-02-21T08:52:50.373Z,11.78
2019-02-21T08:55:18.997Z,11.53
2019-02-21T08:57:47.841Z,10.38
2019-02-21T09:00:17.285Z,13.58
2019-02-21T09:02:45.919Z,12.70
2019-02-21T09:05:15.689Z,12.13
2019-02-21T09:07:46.476Z,9.28
2019-02-21T09:10:14.669Z,10.20
2019-02-21T09:12:47.784Z,10.05
2019-02-21T09:15:16.554Z,8.78
2019-02-21T09:17:45.122Z,8.33
2019-02-21T09:20:13.795Z,8.45
2019-02-21T09:22:42.429Z,8.98
2019-02-21T09:25:12.646Z,8.30
2019-02-21T09:27:41.553Z,10.43
2019-02-21T09:30:17.907Z,11.78
2019-02-21T09:32:46.833Z,10.68
2019-02-21T09:35:15.398Z,10.20
2019-02-21T09:37:44.012Z,9.03
2019-02-21T09:40:15.709Z,11.20
2019-02-21T09:42:44.193Z,11.85
2019-02-21T09:45:15.320Z,9.90
2019-02-21T09:47:44.071Z,9.50
2019-02-21T09:50:12.672Z,9.23
2019-02-21T09:52:41.280Z,9.45
2019-02-21T09:55:11.904Z,9.18
2019-02-21T09:57:40.543Z,9.95
2019-02-21T10:00:20.137Z,8.28
2019-02-21T10:02:48.753Z,8.73
2019-02-21T10:05:17.381Z,9.40
2019-02-21T10:07:46.028Z,8.95
2019-02-21T10:10:16.551Z,8.95
2019-02-21T10:12:45.339Z,8.95
2019-02-21T10:15:15.272Z,8.83
2019-02-21T10:17:44.001Z,9.40
2019-02-21T10:20:17.645Z,8.13
2019-02-21T10:22:46.274Z,9.25
2019-02-21T10:25:17.939Z,8.65
2019-02-21T10:27:46.506Z,6.67
2019-02-21T10:30:17.228Z,6.37
2019-02-21T10:32:45.884Z,6.55
2019-02-21T10:35:14.511Z,5.75
2019-02-21T10:37:43.070Z,7.35
2019-02-21T10:40:13.437Z,7.65
2019-02-21T10:42:42.087Z,6.22
2019-02-21T10:45:15.255Z,15.55
2019-02-21T10:47:44.114Z,7.58
2019-02-21T10:50:18.812Z,7.37
2019-02-21T10:52:47.856Z,7.22
2019-02-21T10:55:17.484Z,8.15
2019-02-21T10:57:46.124Z,8.90
2019-02-21T11:00:17.522Z,7.30
2019-02-21T11:02:46.140Z,7.42
2019-02-21T11:05:14.696Z,7.80
2019-02-21T11:07:43.348Z,7.87
2019-02-21T11:10:14.953Z,8.18
2019-02-21T11:12:43.531Z,7.25
2019-02-21T11:15:14.468Z,7.80
2019-02-21T11:17:43.163Z,7.97
2019-02-21T11:20:17.012Z,9.80
2019-02-21T11:22:54.660Z,10.23
2019-02-21T11:25:23.274Z,8.53
2019-02-21T11:27:52.061Z,8.60
2019-02-21T11:30:21.599Z,8.03
2019-02-21T11:32:50.220Z,7.62
2019-02-21T11:35:19.025Z,7.28
2019-02-21T11:37:47.804Z,7.05
2019-02-21T11:40:17.588Z,8.63
2019-02-21T11:42:46.541Z,6.53
2019-02-21T11:45:19.645Z,6.85
2019-02-21T11:47:48.216Z,6.90
2019-02-21T11:50:20.355Z,7.85
2019-02-21T11:52:48.976Z,7.92
2019-02-21T11:55:28.216Z,8.10
2019-02-21T11:57:56.782Z,6.95
2019-02-21T12:00:27.208Z,6.35
2019-02-21T12:02:55.820Z,7.20
2019-02-21T12:05:32.267Z,6.58
2019-02-21T12:07:55.015Z,6.90
2019-02-21T12:10:23.830Z,6.67
2019-02-21T12:12:52.384Z,5.53
2019-02-21T12:15:21.016Z,8.98
2019-02-21T12:17:49.663Z,6.70
2019-02-21T12:20:19.491Z,6.33
2019-02-21T12:22:48.317Z,6.87
2019-02-21T12:25:19.379Z,6.60
2019-02-21T12:27:48.006Z,7.72
2019-02-21T12:30:18.245Z,8.13
2019-02-21T12:32:47.280Z,7.22
2019-02-21T12:35:16.145Z,7.30
2019-02-21T12:37:44.770Z,11.83
2019-02-21T12:40:21.963Z,6.87
2019-02-21T12:42:50.603Z,5.78
2019-02-21T12:45:26.706Z,4.87
2019-02-21T12:47:55.336Z,5.85
2019-02-21T12:50:23.957Z,6.47
2019-02-21T12:52:52.488Z,5.30
2019-02-21T12:55:28.169Z,5.78
2019-02-21T12:57:51.406Z,7.45
2019-02-21T13:00:21.243Z,6.25
2019-02-21T13:02:49.781Z,7.50
2019-02-21T13:05:18.407Z,7.20
2019-02-21T13:07:47.175Z,6.03
2019-02-21T13:10:18.455Z,5.67
2019-02-21T13:12:47.012Z,5.65
2019-02-21T13:15:16.313Z,6.28
2019-02-21T13:17:44.954Z,5.60
2019-02-21T13:20:14.773Z,5.70
2019-02-21T13:22:43.471Z,5.53
2019-02-21T13:25:13.746Z,4.83
2019-02-21T13:27:42.551Z,4.80
2019-02-21T13:30:18.263Z,5.47
2019-02-21T13:32:46.873Z,5.12
2019-02-21T13:35:15.595Z,5.67
2019-02-21T13:37:44.239Z,6.53
2019-02-21T13:40:17.457Z,5.55
2019-02-21T13:42:46.078Z,5.58
2019-02-21T13:45:17.531Z,5.17
2019-02-21T13:47:46.349Z,4.40
2019-02-21T13:50:17.435Z,4.15
2019-02-21T13:52:46.125Z,4.90
2019-02-21T13:55:14.760Z,4.75
2019-02-21T13:57:43.381Z,4.35
2019-02-21T14:00:19.928Z,5.87
2019-02-21T14:02:48.540Z,4.30
2019-02-21T14:05:17.109Z,5.12
2019-02-21T14:07:45.932Z,5.47
2019-02-21T14:10:15.061Z,6.50
2019-02-21T14:12:43.596Z,6.00
2019-02-21T14:15:24.797Z,6.17
2019-02-21T14:17:53.422Z,6.15
2019-02-21T14:20:22.050Z,7.00
2019-02-21T14:22:50.642Z,5.90
2019-02-21T14:25:19.266Z,5.50
2019-02-21T14:27:47.897Z,6.00
2019-02-21T14:30:23.560Z,5.28
2019-02-21T14:32:52.179Z,5.75
2019-02-21T14:35:20.911Z,6.67
2019-02-21T14:37:49.715Z,6.95
2019-02-21T14:40:18.479Z,7.15
2019-02-21T14:42:47.091Z,6.08
2019-02-21T14:45:24.403Z,6.10
2019-02-21T14:47:52.937Z,6.50
2019-02-21T14:50:21.489Z,8.25
2019-02-21T14:52:50.162Z,8.28
2019-02-21T14:55:18.793Z,8.20
2019-02-21T14:57:47.358Z,8.98
2019-02-21T15:00:18.541Z,7.78
2019-02-21T15:02:49.861Z,9.25
2019-02-21T15:05:19.292Z,8.13
2019-02-21T15:07:48.193Z,6.28
2019-02-21T15:10:16.824Z,7.00
2019-02-21T15:12:45.438Z,7.05
2019-02-21T15:15:26.000Z,4.70
2019-02-21T15:17:54.655Z,5.35
2019-02-21T15:20:23.271Z,4.17
2019-02-21T15:22:53.855Z,5.53
2019-02-21T15:25:22.152Z,4.62
2019-02-21T15:27:50.776Z,4.85
2019-02-21T15:30:26.327Z,4.75
2019-02-21T15:32:54.933Z,4.70
2019-02-21T15:35:23.706Z,6.20
2019-02-21T15:37:52.379Z,5.65
2019-02-21T15:40:20.995Z,5.25
2019-02-21T15:42:52.427Z,6.75
2019-02-21T15:45:24.989Z,5.80
2019-02-21T15:47:53.671Z,7.28
2019-02-21T15:50:22.286Z,8.13
2019-02-21T15:52:52.460Z,7.35
2019-02-21T15:55:22.090Z,8.85
2019-02-21T15:58:00.530Z,9.63
2019-02-21T16:00:22.518Z,9.18
2019-02-21T16:02:51.165Z,8.90
2019-02-21T16:05:19.805Z,10.98
2019-02-21T16:07:48.336Z,11.38
2019-02-21T16:10:25.229Z,10.63
2019-02-21T16:12:54.053Z,11.63
2019-02-21T16:15:23.008Z,10.82
2019-02-21T16:17:51.527Z,10.80
2019-02-21T16:20:21.081Z,12.47
2019-02-21T16:22:49.757Z,13.25
2019-02-21T16:25:21.020Z,16.07
2019-02-21T16:27:49.616Z,21.42
2019-02-21T16:30:18.240Z,25.30
2019-02-21T16:32:46.879Z,25.82
2019-02-21T16:35:15.867Z,21.27
2019-02-21T16:37:44.510Z,23.90
2019-02-21T16:40:20.753Z,24.50
2019-02-21T16:42:49.391Z,26.35
2019-02-21T16:45:20.953Z,27.93
2019-02-21T16:47:49.617Z,31.73
2019-02-21T16:50:29.145Z,34.43
2019-02-21T16:52:48.739Z,35.00
2019-02-21T16:55:22.855Z,31.30
2019-02-21T16:57:51.482Z,27.25
2019-02-21T17:00:22.150Z,19.55
2019-02-21T17:02:50.740Z,16.97
2019-02-21T17:05:19.366Z,14.35
2019-02-21T17:07:47.984Z,14.55
2019-02-21T17:10:17.646Z,9.83
2019-02-21T17:12:46.277Z,9.93
2019-02-21T17:15:18.572Z,10.70
2019-02-21T17:17:47.257Z,8.85
2019-02-21T17:20:17.857Z,10.58
2019-02-21T17:22:46.470Z,10.10
2019-02-21T17:25:16.166Z,9.75
2019-02-21T17:27:45.790Z,10.38
2019-02-21T17:30:19.318Z,9.80
2019-02-21T17:32:48.118Z,9.88
2019-02-21T17:35:16.749Z,10.93
2019-02-21T17:37:45.514Z,13.32
2019-02-21T17:40:19.895Z,16.07
2019-02-21T17:42:48.522Z,11.18
2019-02-21T17:45:17.264Z,11.65
2019-02-21T17:47:45.946Z,11.18
2019-02-21T17:50:16.697Z,10.32
2019-02-21T17:52:45.329Z,10.68
2019-02-21T17:55:14.764Z,10.95
2019-02-21T17:57:43.695Z,10.95
2019-02-21T18:00:24.631Z,9.00
2019-02-21T18:02:53.261Z,9.45
2019-02-21T18:05:21.885Z,10.35
2019-02-21T18:07:50.551Z,9.58
2019-02-21T18:10:19.275Z,8.50
2019-02-21T18:12:47.908Z,8.45
2019-02-21T18:15:17.877Z,9.50
2019-02-21T18:17:46.513Z,10.55
2019-02-21T18:20:15.828Z,9.23
2019-02-21T18:22:44.606Z,9.10
2019-02-21T18:25:19.297Z,9.88
2019-02-21T18:27:47.895Z,8.95
2019-02-21T18:30:17.438Z,9.55
2019-02-21T18:32:46.118Z,8.83
2019-02-21T18:35:15.079Z,10.00
2019-02-21T18:37:47.396Z,9.38
2019-02-21T18:40:20.875Z,9.63
2019-02-21T18:42:49.673Z,10.05
2019-02-21T18:45:18.289Z,11.45
2019-02-21T18:47:46.946Z,11.68
2019-02-21T18:50:15.771Z,11.25
2019-02-21T18:52:53.465Z,10.40
2019-02-21T18:55:22.090Z,10.98
2019-02-21T18:57:50.723Z,11.35
2019-02-21T19:00:24.891Z,12.07
2019-02-21T19:02:53.525Z,12.65
2019-02-21T19:05:22.465Z,12.75
2019-02-21T19:08:02.125Z,13.43
2019-02-21T19:10:22.892Z,13.03
2019-02-21T19:12:51.473Z,11.90
2019-02-21T19:15:21.274Z,11.50
2019-02-21T19:17:49.896Z,11.45
2019-02-21T19:20:20.045Z,12.37
2019-02-21T19:22:48.706Z,12.00
2019-02-21T19:25:17.635Z,13.05
2019-02-21T19:27:46.258Z,11.22
2019-02-21T19:30:36.006Z,12.07
2019-02-21T19:33:04.732Z,12.73
2019-02-21T19:35:33.468Z,13.25
2019-02-21T19:38:09.933Z,12.53
2019-02-21T19:40:32.432Z,12.18
2019-02-21T19:43:01.047Z,12.30
2019-02-21T19:45:29.811Z,11.48
2019-02-21T19:47:58.297Z,12.13
2019-02-21T19:50:27.007Z,13.00
2019-02-21T19:52:55.887Z,11.20
2019-02-21T19:55:24.514Z,11.35
2019-02-21T19:57:52.992Z,10.98
2019-02-21T20:00:27.584Z,11.22
2019-02-21T20:02:56.144Z,11.03
2019-02-21T20:05:24.765Z,9.73
2019-02-21T20:07:53.658Z,11.10
2019-02-21T20:10:22.488Z,11.15
2019-02-21T20:12:51.063Z,12.68
2019-02-21T20:15:19.732Z,11.18
2019-02-21T20:17:48.366Z,10.45
2019-02-21T20:20:22.366Z,11.23
2019-02-21T20:22:50.922Z,9.95
2019-02-21T20:25:19.511Z,11.97
2019-02-21T20:27:48.206Z,10.35
2019-02-21T20:30:18.762Z,10.65
2019-02-21T20:32:47.489Z,11.18
2019-02-21T20:35:16.065Z,11.15
2019-02-21T20:37:44.732Z,12.43
2019-02-21T20:40:13.565Z,11.00
2019-02-21T20:42:42.203Z,11.18
2019-02-21T20:45:14.974Z,11.48
2019-02-21T20:47:43.627Z,11.15
2019-02-21T20:50:13.839Z,11.90
2019-02-21T20:52:42.502Z,11.77
2019-02-21T20:55:11.922Z,10.58
2019-02-21T20:57:40.549Z,10.58
2019-02-21T21:00:14.807Z,11.25
2019-02-21T21:02:43.843Z,10.40
2019-02-21T21:05:12.781Z,12.00
2019-02-21T21:07:41.456Z,10.10
2019-02-21T21:10:13.058Z,10.85
2019-02-21T21:12:41.699Z,11.07
2019-02-21T21:15:11.961Z,11.03
2019-02-21T21:17:40.593Z,12.80
2019-02-21T21:20:16.771Z,10.35
2019-02-21T21:22:44.484Z,11.55
2019-02-21T21:25:18.110Z,12.55
2019-02-21T21:27:46.721Z,12.82
2019-02-21T21:30:16.703Z,13.00
2019-02-21T21:32:45.437Z,13.00
2019-02-21T21:35:14.372Z,13.62
2019-02-21T21:37:43.280Z,13.43
2019-02-21T21:40:14.596Z,14.58
2019-02-21T21:42:43.209Z,12.23
2019-02-21T21:45:14.734Z,11.57
2019-02-21T21:47:43.370Z,11.05
2019-02-21T21:50:14.924Z,9.08
2019-02-21T21:52:43.729Z,8.20
2019-02-21T21:55:12.354Z,9.53
2019-02-21T21:57:40.981Z,8.65
2019-02-21T22:00:18.744Z,9.10
2019-02-21T22:02:48.818Z,8.05
2019-02-21T22:05:17.431Z,8.05
2019-02-21T22:07:46.134Z,8.10
2019-02-21T22:10:15.746Z,8.08
2019-02-21T22:12:44.372Z,8.08
2019-02-21T22:15:15.344Z,8.95
2019-02-21T22:17:43.899Z,8.65
2019-02-21T22:20:12.526Z,8.88
2019-02-21T22:22:41.196Z,8.38
2019-02-21T22:25:11.725Z,8.00
2019-02-21T22:27:40.336Z,8.28
2019-02-21T22:30:14.514Z,8.73
2019-02-21T22:32:43.145Z,8.00
2019-02-21T22:35:11.782Z,8.30
2019-02-21T22:37:40.488Z,8.08
2019-02-21T22:40:18.262Z,8.50
2019-02-21T22:42:46.969Z,8.60
2019-02-21T22:45:15.530Z,9.73
2019-02-21T22:47:44.169Z,9.33
2019-02-21T22:50:18.369Z,8.25
2019-02-21T22:52:46.930Z,8.98
2019-02-21T22:55:15.550Z,9.00
2019-02-21T22:57:44.224Z,9.28
2019-02-21T23:00:36.904Z,8.90
2019-02-21T23:03:09.102Z,8.13
2019-02-21T23:05:58.717Z,8.95
2019-02-21T23:08:41.702Z,10.03
2019-02-21T23:11:10.568Z,8.53
2019-02-21T23:13:39.206Z,8.43
2019-02-21T23:16:08.167Z,8.95
2019-02-21T23:18:36.790Z,8.88
2019-02-21T23:21:05.703Z,8.95
2019-02-21T23:23:34.303Z,9.13
2019-02-21T23:26:02.855Z,9.78
2019-02-21T23:28:31.478Z,9.85
2019-02-21T23:31:00.496Z,8.98
2019-02-21T23:33:30.298Z,8.90
2019-02-21T23:35:58.788Z,8.40
2019-02-21T23:38:27.430Z,9.20
2019-02-21T23:40:56.047Z,9.65
2019-02-21T23:43:24.639Z,9.13
2019-02-21T23:45:53.205Z,10.03
2019-02-21T23:48:21.881Z,8.33
2019-02-21T23:50:50.547Z,9.80
2019-02-21T23:53:19.054Z,9.80
2019-02-21T23:55:47.624Z,10.00
2019-02-21T23:58:16.444Z,10.85
